Moran, Minnesota
Current Conditions -  °F | °C
As of 10:33 PM on Wednesday 22 Oct 2014 (Local Time) from KSAZ Reporting Station
Light Rain Light Rain  
Wind Chill: 52°   Ceiling: 2500
Heat Index: 52°   Visibility: 7mi
Dew Point: 46°   Wind: 6mph
Humidity: 82%   Direction: 170°S
Pressure: 29.95"   Gusts: NA
Location:  46.4416°N, 94.6389°W
Report Text: KSAZ 230333Z AUTO 17005KT 7SM -RA OVC025 11/08 A2995 RMK AO2 P0002
Loading
Personal Weather Stations






























Interactive Weather Map
Tropical Storm Tracking
New forecast layout! Learn more

10-Day Weather Forecast

Advertisements
Track Severe Weather on mobile